createdAt,value
2019-02-09T00:02:09.022Z,3.77
2019-02-09T00:04:39.505Z,4.70
2019-02-09T00:07:09.955Z,2.25
2019-02-09T00:09:40.462Z,4.50
2019-02-09T00:12:10.940Z,7.35
2019-02-09T00:14:41.406Z,5.50
2019-02-09T00:17:11.899Z,4.10
2019-02-09T00:19:42.380Z,4.35
2019-02-09T00:22:12.842Z,4.75
2019-02-09T00:24:43.372Z,5.62
2019-02-09T00:27:13.857Z,5.70
2019-02-09T00:29:46.264Z,5.10
2019-02-09T00:32:16.520Z,6.73
2019-02-09T00:34:46.987Z,4.33
2019-02-09T00:37:17.455Z,2.20
2019-02-09T00:39:47.949Z,8.80
2019-02-09T00:42:18.457Z,3.90
2019-02-09T00:44:48.904Z,4.20
2019-02-09T00:47:19.389Z,3.20
2019-02-09T00:49:49.863Z,6.35
2019-02-09T00:52:20.326Z,4.22
2019-02-09T00:54:50.887Z,3.67
2019-02-09T00:57:21.363Z,4.27
2019-02-09T00:59:54.183Z,5.35
2019-02-09T01:02:24.022Z,4.53
2019-02-09T01:04:54.466Z,3.12
2019-02-09T01:07:25.045Z,3.25
2019-02-09T01:09:55.552Z,3.20
2019-02-09T01:12:26.024Z,4.58
2019-02-09T01:14:56.528Z,2.58
2019-02-09T01:17:26.993Z,2.90
2019-02-09T01:19:57.464Z,4.00
2019-02-09T01:22:27.927Z,4.28
2019-02-09T01:24:58.389Z,4.60
2019-02-09T01:27:28.882Z,3.10
2019-02-09T01:30:02.421Z,5.42
2019-02-09T01:32:31.555Z,8.80
2019-02-09T01:35:01.999Z,3.30
2019-02-09T01:37:32.479Z,4.95
2019-02-09T01:40:02.967Z,6.37
2019-02-09T01:42:33.431Z,6.62
2019-02-09T01:45:04.835Z,7.65
2019-02-09T01:47:35.321Z,7.83
2019-02-09T01:50:09.004Z,6.17
2019-02-09T01:52:39.467Z,4.30
2019-02-09T01:55:11.112Z,2.52
2019-02-09T01:57:41.600Z,5.30
2019-02-09T02:00:19.011Z,4.70
2019-02-09T02:02:49.981Z,3.58
2019-02-09T02:05:22.064Z,2.83
2019-02-09T02:07:52.932Z,3.00
2019-02-09T02:10:42.545Z,6.03
2019-02-09T02:13:13.223Z,2.00
2019-02-09T02:15:43.933Z,2.83
2019-02-09T02:18:14.509Z,1.62
2019-02-09T02:20:45.019Z,4.37
2019-02-09T02:23:15.501Z,5.60
2019-02-09T02:25:45.982Z,3.02
2019-02-09T02:28:16.468Z,4.10
2019-02-09T02:30:46.919Z,4.20
2019-02-09T02:33:17.395Z,2.25
2019-02-09T02:35:47.887Z,6.30
2019-02-09T02:38:18.355Z,1.80
2019-02-09T02:40:48.831Z,3.75
2019-02-09T02:43:19.306Z,4.00
2019-02-09T02:45:49.807Z,7.35
2019-02-09T02:48:20.287Z,5.10
2019-02-09T02:50:50.794Z,3.75
2019-02-09T02:53:21.263Z,6.42
2019-02-09T02:55:51.741Z,1.80
2019-02-09T02:58:22.253Z,3.55
2019-02-09T03:00:52.744Z,3.10
2019-02-09T03:03:23.238Z,5.15
2019-02-09T03:05:53.734Z,5.60
2019-02-09T03:08:24.206Z,3.25
2019-02-09T03:10:54.693Z,4.72
2019-02-09T03:13:25.162Z,7.70
2019-02-09T03:15:55.714Z,3.50
2019-02-09T03:18:26.183Z,6.33
2019-02-09T03:20:56.709Z,8.93
2019-02-09T03:23:27.161Z,5.60
2019-02-09T03:25:57.627Z,1.70
2019-02-09T03:28:28.116Z,5.30
2019-02-09T03:30:58.578Z,3.70
2019-02-09T03:33:29.100Z,3.60
2019-02-09T03:35:59.633Z,2.30
2019-02-09T03:38:30.081Z,3.90
2019-02-09T03:41:00.537Z,3.00
2019-02-09T03:43:31.030Z,2.40
2019-02-09T03:46:01.511Z,2.22
2019-02-09T03:48:31.973Z,3.95
2019-02-09T03:51:02.494Z,6.20
2019-02-09T03:53:32.990Z,3.25
2019-02-09T03:56:03.453Z,1.80
2019-02-09T03:58:34.071Z,4.90
2019-02-09T04:01:04.960Z,3.90
2019-02-09T04:03:35.628Z,4.37
2019-02-09T04:06:06.117Z,3.52
2019-02-09T04:08:36.576Z,3.85
2019-02-09T04:11:07.048Z,3.75
2019-02-09T04:13:37.554Z,2.20
2019-02-09T04:16:08.055Z,2.20
2019-02-09T04:18:38.466Z,6.42
2019-02-09T04:21:08.982Z,3.33
2019-02-09T04:23:39.434Z,2.02
2019-02-09T04:26:09.893Z,3.27
2019-02-09T04:28:40.376Z,4.80
2019-02-09T04:31:10.834Z,6.90
2019-02-09T04:33:41.299Z,7.80
2019-02-09T04:36:11.781Z,10.00
2019-02-09T04:38:42.251Z,4.28
2019-02-09T04:41:12.700Z,2.13
2019-02-09T04:43:43.293Z,8.60
2019-02-09T04:46:13.783Z,5.20
2019-02-09T04:48:44.230Z,3.50
2019-02-09T04:51:14.774Z,2.30
2019-02-09T04:53:45.177Z,3.40
2019-02-09T04:56:15.727Z,2.80
2019-02-09T04:58:46.182Z,2.50
2019-02-09T05:01:16.638Z,5.12
2019-02-09T05:03:47.135Z,2.83
2019-02-09T05:06:17.576Z,2.10
2019-02-09T05:08:48.084Z,2.30
2019-02-09T05:11:18.568Z,4.40
2019-02-09T05:13:49.017Z,5.22
2019-02-09T05:16:19.463Z,4.47
2019-02-09T05:18:49.941Z,10.23
2019-02-09T05:21:20.421Z,4.10
2019-02-09T05:23:50.864Z,5.50
2019-02-09T05:26:21.344Z,2.90
2019-02-09T05:28:51.800Z,4.35
2019-02-09T05:31:23.451Z,4.40
2019-02-09T05:33:54.198Z,3.25
2019-02-09T05:36:24.650Z,4.55
2019-02-09T05:38:55.097Z,4.17
2019-02-09T05:41:25.587Z,3.65
2019-02-09T05:43:56.185Z,6.28
2019-02-09T05:46:26.692Z,6.40
2019-02-09T05:48:57.338Z,4.22
2019-02-09T05:51:30.291Z,5.05
2019-02-09T05:53:59.987Z,3.08
2019-02-09T05:56:30.515Z,2.22
2019-02-09T05:59:00.979Z,3.30
2019-02-09T06:01:32.549Z,4.30
2019-02-09T06:04:03.246Z,3.25
2019-02-09T06:06:33.687Z,3.20
2019-02-09T06:09:05.704Z,5.10
2019-02-09T06:11:36.185Z,9.35
2019-02-09T06:14:06.970Z,3.02
2019-02-09T06:16:37.398Z,4.10
2019-02-09T06:19:07.948Z,3.30
2019-02-09T06:21:38.404Z,3.15
2019-02-09T06:24:08.855Z,10.23
2019-02-09T06:26:39.364Z,3.27
2019-02-09T06:29:09.807Z,3.37
2019-02-09T06:31:41.266Z,4.03
2019-02-09T06:34:11.930Z,5.08
2019-02-09T06:36:42.404Z,8.25
2019-02-09T06:39:12.867Z,4.60
2019-02-09T06:41:43.344Z,3.50
2019-02-09T06:44:14.186Z,4.70
2019-02-09T06:46:44.650Z,7.97
2019-02-09T06:49:15.125Z,8.45
2019-02-09T06:51:45.576Z,5.28
2019-02-09T06:54:16.187Z,5.17
2019-02-09T06:56:46.606Z,3.92
2019-02-09T06:59:17.070Z,2.20
2019-02-09T07:01:48.810Z,2.53
2019-02-09T07:04:19.957Z,4.10
2019-02-09T07:06:50.421Z,2.40
2019-02-09T07:09:20.911Z,3.20
2019-02-09T07:11:51.595Z,2.20
2019-02-09T07:14:22.040Z,6.47
2019-02-09T07:16:52.495Z,3.25
2019-02-09T07:19:22.978Z,3.80
2019-02-09T07:21:53.432Z,4.87
2019-02-09T07:24:23.887Z,4.65
2019-02-09T07:26:54.344Z,3.40
2019-02-09T07:29:24.797Z,1.98
2019-02-09T07:31:56.664Z,2.70
2019-02-09T07:34:27.643Z,1.60
2019-02-09T07:36:58.222Z,2.90
2019-02-09T07:39:28.704Z,3.90
2019-02-09T07:41:59.314Z,3.62
2019-02-09T07:44:29.880Z,6.53
2019-02-09T07:47:00.382Z,10.03
2019-02-09T07:49:30.815Z,3.45
2019-02-09T07:52:01.305Z,5.90
2019-02-09T07:54:31.776Z,6.47
2019-02-09T07:57:02.221Z,2.40
2019-02-09T07:59:32.772Z,8.23
2019-02-09T08:02:04.727Z,5.95
2019-02-09T08:04:35.524Z,4.93
2019-02-09T08:07:06.095Z,8.53
2019-02-09T08:09:36.651Z,6.00
2019-02-09T08:12:07.802Z,6.75
2019-02-09T08:14:38.264Z,4.97
2019-02-09T08:17:08.860Z,8.30
2019-02-09T08:19:39.365Z,8.48
2019-02-09T08:22:09.862Z,4.60
2019-02-09T08:24:40.326Z,6.78
2019-02-09T08:27:10.891Z,5.75
2019-02-09T08:29:41.365Z,6.27
2019-02-09T08:32:13.031Z,10.48
2019-02-09T08:34:43.694Z,4.83
2019-02-09T08:37:14.158Z,4.62
2019-02-09T08:39:44.645Z,7.83
2019-02-09T08:42:15.115Z,8.03
2019-02-09T08:44:45.694Z,7.80
2019-02-09T08:47:16.126Z,4.75
2019-02-09T08:49:46.668Z,4.97
2019-02-09T08:52:17.130Z,4.78
2019-02-09T08:54:47.593Z,6.53
2019-02-09T08:57:18.106Z,1.90
2019-02-09T08:59:48.582Z,9.23
2019-02-09T09:02:20.701Z,7.75
2019-02-09T09:04:51.434Z,4.72
2019-02-09T09:07:21.895Z,12.43
2019-02-09T09:09:52.421Z,5.50
2019-02-09T09:12:22.910Z,7.70
2019-02-09T09:14:53.377Z,7.97
2019-02-09T09:17:23.828Z,8.43
2019-02-09T09:19:54.309Z,5.83
2019-02-09T09:22:26.585Z,6.28
2019-02-09T09:24:57.097Z,7.10
2019-02-09T09:27:27.639Z,12.23
2019-02-09T09:29:58.095Z,5.40
2019-02-09T09:32:28.998Z,7.08
2019-02-09T09:34:59.486Z,9.00
2019-02-09T09:37:29.992Z,8.00
2019-02-09T09:40:00.509Z,8.30
2019-02-09T09:42:31.027Z,3.22
2019-02-09T09:45:01.483Z,8.23
2019-02-09T09:47:31.943Z,5.78
2019-02-09T09:50:02.558Z,5.25
2019-02-09T10:12:26.255Z,8.13
2019-02-09T10:14:56.990Z,6.12
2019-02-09T10:17:27.525Z,11.63
2019-02-09T10:19:58.251Z,13.65
2019-02-09T10:22:28.751Z,4.80
2019-02-09T10:24:59.299Z,7.15
2019-02-09T10:27:29.842Z,10.13
2019-02-09T10:30:00.414Z,9.55
2019-02-09T10:32:30.848Z,10.08
2019-02-09T10:35:01.458Z,10.50
2019-02-09T10:37:32.105Z,6.80
2019-02-09T10:40:02.760Z,8.00
2019-02-09T10:42:33.493Z,5.65
2019-02-09T10:45:04.191Z,14.20
2019-02-09T10:47:34.760Z,10.48
2019-02-09T10:50:07.159Z,6.60
2019-02-09T10:52:37.799Z,10.70
2019-02-09T10:55:09.871Z,11.30
2019-02-09T10:57:41.666Z,11.80
2019-02-09T11:00:20.622Z,7.33
2019-02-09T11:02:52.310Z,17.55
2019-02-09T11:05:22.987Z,12.05
2019-02-09T11:07:53.686Z,9.43
2019-02-09T11:10:25.423Z,10.38
2019-02-09T11:12:56.138Z,7.33
2019-02-09T11:15:26.740Z,7.03
2019-02-09T11:17:57.381Z,10.43
2019-02-09T11:20:27.983Z,11.45
2019-02-09T11:22:58.484Z,9.98
2019-02-09T11:25:30.184Z,6.55
2019-02-09T11:28:00.706Z,10.98
2019-02-09T11:30:31.961Z,8.95
2019-02-09T11:33:02.737Z,8.40
2019-02-09T11:35:33.312Z,9.67
2019-02-09T11:38:04.887Z,9.23
2019-02-09T11:40:35.476Z,8.23
2019-02-09T11:43:07.358Z,13.75
2019-02-09T11:45:38.750Z,13.58
2019-02-09T11:48:09.447Z,11.55
2019-02-09T11:50:40.042Z,5.80
2019-02-09T11:53:10.631Z,12.63
2019-02-09T11:55:41.244Z,12.60
2019-02-09T11:58:11.819Z,8.25
2019-02-09T12:00:49.756Z,21.73
2019-02-09T12:03:20.268Z,11.03
2019-02-09T12:05:50.854Z,7.85
2019-02-09T12:08:21.542Z,8.20
2019-02-09T12:10:52.095Z,12.43
2019-02-09T12:13:22.659Z,11.20
2019-02-09T12:15:53.234Z,17.50
2019-02-09T12:18:23.803Z,9.28
2019-02-09T12:20:54.329Z,16.30
2019-02-09T12:23:24.886Z,9.50
2019-02-09T12:25:55.373Z,13.68
2019-02-09T12:28:25.924Z,14.85
2019-02-09T12:30:56.489Z,15.35
2019-02-09T12:33:26.986Z,14.70
2019-02-09T12:35:57.489Z,11.85
2019-02-09T12:38:28.076Z,11.27
2019-02-09T12:40:58.634Z,8.03
2019-02-09T12:43:29.138Z,10.30
2019-02-09T12:45:59.696Z,12.68
2019-02-09T12:48:30.234Z,7.10
2019-02-09T12:51:00.772Z,12.00
2019-02-09T12:53:31.380Z,17.10
2019-02-09T12:56:01.884Z,10.18
2019-02-09T12:58:32.454Z,14.23
2019-02-09T13:01:02.975Z,10.67
2019-02-09T13:03:33.534Z,13.45
2019-02-09T13:06:04.059Z,6.33
2019-02-09T13:08:34.644Z,10.43
2019-02-09T13:11:05.228Z,8.43
2019-02-09T13:13:35.757Z,13.10
2019-02-09T13:16:06.888Z,7.05
2019-02-09T13:18:37.458Z,14.40
2019-02-09T13:21:08.164Z,14.00
2019-02-09T13:23:38.757Z,5.78
2019-02-09T13:26:09.313Z,7.80
2019-02-09T13:28:39.837Z,6.15
2019-02-09T13:31:10.381Z,9.90
2019-02-09T13:33:40.922Z,10.75
2019-02-09T13:36:11.490Z,11.75
2019-02-09T13:38:42.027Z,8.40
2019-02-09T13:41:12.526Z,11.78
2019-02-09T13:43:43.055Z,9.10
2019-02-09T13:46:13.651Z,15.80
2019-02-09T13:48:44.135Z,8.90
2019-02-09T13:51:14.669Z,9.08
2019-02-09T13:53:45.202Z,9.30
2019-02-09T13:56:15.710Z,8.75
2019-02-09T13:58:46.257Z,8.73
2019-02-09T14:01:16.754Z,8.00
2019-02-09T14:03:47.384Z,13.62
2019-02-09T14:06:17.931Z,4.87
2019-02-09T14:08:48.563Z,10.25
2019-02-09T14:11:19.088Z,22.93
2019-02-09T14:13:49.588Z,5.95
2019-02-09T14:16:20.101Z,11.35
2019-02-09T14:18:50.627Z,12.90
2019-02-09T14:21:21.134Z,12.05
2019-02-09T14:23:51.707Z,8.13
2019-02-09T14:26:22.309Z,7.40
2019-02-09T14:28:52.820Z,7.67
2019-02-09T14:31:23.286Z,7.80
2019-02-09T14:33:55.358Z,8.23
2019-02-09T14:36:26.057Z,11.95
2019-02-09T14:38:56.602Z,15.45
2019-02-09T14:41:27.188Z,11.90
2019-02-09T14:43:57.687Z,7.58
2019-02-09T14:46:28.324Z,14.05
2019-02-09T14:48:58.830Z,16.80
2019-02-09T14:51:29.342Z,26.62
2019-02-09T14:53:59.933Z,8.95
2019-02-09T14:56:30.546Z,6.03
2019-02-09T14:59:01.040Z,10.90
2019-02-09T15:01:31.640Z,11.35
2019-02-09T15:04:03.024Z,2.10
2019-02-09T15:06:33.895Z,9.98
2019-02-09T15:09:06.044Z,3.93
2019-02-09T15:11:36.569Z,5.10
2019-02-09T15:14:07.736Z,12.95
2019-02-09T15:16:55.025Z,7.80
2019-02-09T15:19:32.611Z,11.22
2019-02-09T15:22:03.129Z,6.53
2019-02-09T15:24:33.664Z,9.93
2019-02-09T15:27:04.168Z,15.78
2019-02-09T15:29:34.761Z,5.97
2019-02-09T15:32:05.569Z,12.53
2019-02-09T15:34:36.110Z,11.97
2019-02-09T15:37:06.810Z,10.40
2019-02-09T15:39:37.317Z,10.13
2019-02-09T15:42:07.939Z,12.68
2019-02-09T15:44:38.488Z,17.80
2019-02-09T15:47:09.002Z,5.37
2019-02-09T15:49:39.840Z,11.57
2019-02-09T15:52:10.355Z,7.90
2019-02-09T15:54:40.884Z,25.40
2019-02-09T15:57:11.419Z,11.97
2019-02-09T15:59:42.004Z,15.88
2019-02-09T16:02:12.577Z,13.03
2019-02-09T16:04:43.062Z,13.08
2019-02-09T16:07:13.637Z,16.82
2019-02-09T16:09:44.208Z,12.33
2019-02-09T16:12:14.758Z,16.82
2019-02-09T16:14:45.365Z,10.58
2019-02-09T16:17:15.835Z,11.53
2019-02-09T16:19:46.371Z,18.77
2019-02-09T16:22:16.934Z,12.47
2019-02-09T16:24:47.437Z,16.77
2019-02-09T16:27:18.141Z,15.65
2019-02-09T16:29:48.703Z,15.50
2019-02-09T16:32:19.266Z,12.80
2019-02-09T16:34:51.303Z,23.02
2019-02-09T16:37:22.108Z,10.80
2019-02-09T16:39:52.780Z,11.93
2019-02-09T16:42:23.393Z,7.90
2019-02-09T16:44:53.916Z,8.20
2019-02-09T16:47:24.481Z,13.78
2019-02-09T16:49:54.978Z,7.73
2019-02-09T16:52:25.861Z,13.15
2019-02-09T16:54:56.485Z,18.07
2019-02-09T16:57:26.999Z,12.60
2019-02-09T16:59:57.534Z,12.37
2019-02-09T17:02:28.148Z,19.00
2019-02-09T17:04:59.779Z,10.48
2019-02-09T17:07:30.469Z,16.32
2019-02-09T17:10:01.024Z,10.85
2019-02-09T17:12:31.511Z,11.10
2019-02-09T17:15:02.052Z,6.55
2019-02-09T17:17:32.574Z,13.80
2019-02-09T17:20:03.089Z,12.68
2019-02-09T17:22:33.690Z,17.12
2019-02-09T17:25:04.605Z,13.80
2019-02-09T17:27:35.139Z,9.80
2019-02-09T17:30:15.861Z,22.15
2019-02-09T17:32:46.435Z,7.70
2019-02-09T17:35:16.979Z,11.15
2019-02-09T17:37:47.650Z,14.65
2019-02-09T17:40:21.452Z,15.45
2019-02-09T17:42:53.403Z,16.42
2019-02-09T17:45:28.222Z,15.50
2019-02-09T17:47:58.749Z,20.20
2019-02-09T17:50:29.384Z,16.55
2019-02-09T17:53:00.317Z,21.85
2019-02-09T17:55:30.996Z,14.43
2019-02-09T17:58:01.646Z,16.77
2019-02-09T18:00:54.318Z,18.52
2019-02-09T18:03:24.800Z,11.55
2019-02-09T18:05:55.341Z,14.55
2019-02-09T18:08:25.881Z,17.90
2019-02-09T18:10:56.466Z,18.70
2019-02-09T18:13:26.992Z,17.55
2019-02-09T18:15:57.672Z,20.87
2019-02-09T18:18:28.213Z,14.85
2019-02-09T18:20:58.751Z,21.87
2019-02-09T18:23:29.336Z,16.87
2019-02-09T18:26:00.117Z,19.50
2019-02-09T18:28:30.679Z,18.30
2019-02-09T18:31:01.240Z,20.12
2019-02-09T18:33:31.735Z,33.73
2019-02-09T18:36:02.248Z,11.78
2019-02-09T18:38:32.862Z,20.00
2019-02-09T18:41:03.335Z,18.02
2019-02-09T18:43:33.867Z,21.93
2019-02-09T18:46:04.715Z,14.10
2019-02-09T18:48:36.282Z,18.12
2019-02-09T18:51:06.874Z,9.95
2019-02-09T18:53:37.472Z,12.40
2019-02-09T18:56:07.962Z,13.83
2019-02-09T18:58:38.528Z,12.65
2019-02-09T19:01:09.240Z,24.57
2019-02-09T19:03:39.805Z,13.90
2019-02-09T19:06:10.416Z,20.68
2019-02-09T19:08:40.983Z,19.07
2019-02-09T19:11:11.475Z,15.95
2019-02-09T19:13:41.998Z,13.43
2019-02-09T19:16:12.534Z,13.20
2019-02-09T19:18:43.079Z,13.38
2019-02-09T19:21:16.819Z,18.90
2019-02-09T19:23:47.358Z,12.35
2019-02-09T19:26:17.918Z,12.37
2019-02-09T19:28:48.488Z,16.85
2019-02-09T19:31:19.104Z,13.57
2019-02-09T19:33:49.998Z,17.65
2019-02-09T19:36:20.591Z,17.87
2019-02-09T19:38:51.061Z,14.05
2019-02-09T19:41:21.619Z,19.75
2019-02-09T19:43:52.230Z,12.13
2019-02-09T19:46:25.619Z,21.30
2019-02-09T19:48:56.143Z,16.80
2019-02-09T19:51:26.700Z,16.15
2019-02-09T19:53:57.268Z,12.37
2019-02-09T19:56:27.833Z,18.07
2019-02-09T19:58:58.573Z,9.20
2019-02-09T20:01:29.006Z,9.95
2019-02-09T20:03:59.511Z,13.90
2019-02-09T20:06:30.021Z,22.42
2019-02-09T20:09:00.526Z,22.80
2019-02-09T20:11:31.057Z,15.53
2019-02-09T20:14:01.584Z,18.90
2019-02-09T20:16:32.123Z,13.13
2019-02-09T20:19:02.673Z,12.82
2019-02-09T20:21:33.192Z,16.23
2019-02-09T20:24:03.720Z,14.65
2019-02-09T20:26:34.302Z,13.58
2019-02-09T20:29:05.005Z,13.55
2019-02-09T20:31:35.551Z,14.80
2019-02-09T20:34:06.156Z,21.17
2019-02-09T20:36:37.619Z,16.65
2019-02-09T20:39:10.315Z,15.68
2019-02-09T20:41:41.100Z,10.93
2019-02-09T20:44:11.695Z,9.68
2019-02-09T20:46:42.164Z,10.85
2019-02-09T20:49:12.711Z,16.93
2019-02-09T20:51:43.340Z,15.00
2019-02-09T20:54:13.908Z,14.85
2019-02-09T20:56:44.389Z,9.67
2019-02-09T20:59:14.966Z,9.38
2019-02-09T21:01:45.439Z,10.38
2019-02-09T21:04:15.978Z,18.48
2019-02-09T21:06:46.544Z,16.07
2019-02-09T21:09:17.007Z,15.58
2019-02-09T21:11:47.523Z,14.68
2019-02-09T21:14:18.030Z,15.17
2019-02-09T21:16:51.707Z,21.10
2019-02-09T21:19:21.010Z,10.53
2019-02-09T21:21:51.605Z,11.03
2019-02-09T21:24:22.165Z,25.60
2019-02-09T21:26:52.835Z,16.12
2019-02-09T21:29:23.422Z,15.38
2019-02-09T21:31:53.869Z,19.40
2019-02-09T21:34:24.453Z,14.55
2019-02-09T21:36:55.340Z,10.50
2019-02-09T21:39:33.495Z,11.75
2019-02-09T21:41:59.063Z,16.37
2019-02-09T21:44:29.679Z,19.90
2019-02-09T21:47:00.248Z,19.12
2019-02-09T21:49:30.848Z,15.65
2019-02-09T21:52:01.364Z,10.72
2019-02-09T22:05:08.719Z,20.68
2019-02-09T22:07:39.260Z,16.37
2019-02-09T22:10:12.570Z,16.62
2019-02-09T22:12:44.086Z,12.78
2019-02-09T22:15:14.990Z,10.23
2019-02-09T22:17:45.564Z,24.20
2019-02-09T22:20:17.575Z,9.55
2019-02-09T22:22:48.768Z,8.15
2019-02-09T22:25:21.684Z,21.12
2019-02-09T22:27:55.269Z,23.40
2019-02-09T22:30:28.254Z,13.30
2019-02-09T22:32:59.716Z,11.35
2019-02-09T22:35:30.973Z,8.08
2019-02-09T22:38:01.612Z,14.58
2019-02-09T22:40:34.372Z,16.37
2019-02-09T22:43:06.147Z,13.68
2019-02-09T22:45:37.022Z,11.50
2019-02-09T22:48:09.660Z,18.50
2019-02-09T22:50:43.876Z,19.73
2019-02-09T22:53:14.531Z,13.72
2019-02-09T22:55:45.645Z,11.63
2019-02-09T22:58:16.200Z,17.05
2019-02-09T23:01:37.050Z,10.95
2019-02-09T23:05:00.552Z,19.48
2019-02-09T23:07:34.156Z,13.45
2019-02-09T23:10:10.593Z,27.22
2019-02-09T23:12:48.312Z,15.72
2019-02-09T23:15:13.377Z,19.05
2019-02-09T23:17:43.944Z,15.63
2019-02-09T23:20:14.536Z,10.23
2019-02-09T23:22:45.025Z,18.95
2019-02-09T23:25:15.561Z,16.52
2019-02-09T23:27:46.081Z,13.88
2019-02-09T23:30:16.647Z,18.23
2019-02-09T23:32:47.110Z,14.95
2019-02-09T23:35:17.656Z,18.80
2019-02-09T23:37:48.187Z,12.10
2019-02-09T23:40:18.821Z,18.75
2019-02-09T23:42:49.320Z,11.90
2019-02-09T23:45:19.920Z,19.85
2019-02-09T23:47:50.437Z,19.23
2019-02-09T23:50:21.005Z,16.65
2019-02-09T23:52:51.528Z,30.90
2019-02-09T23:55:22.115Z,23.07
2019-02-09T23:57:52.683Z,21.30
